Spearville, Kansas
Current Conditions -  °F | °C
As of 9:52 PM on Wednesday 28 Jan 2015 (Local Time) from KDDC Reporting Station
Clear Clear  
Wind Chill: 53°   Ceiling: Unl
Heat Index: 53°   Visibility: 10mi
Dew Point: 32°   Wind: 17mph
Humidity: 45%   Direction: 340°NNW
Pressure: 30.09"   Gusts: 26mph
Location:  37.85°N, 99.76°W
Report Text: KDDC 290352Z AUTO 34015G23KT 10SM CLR 12/00 A3009 RMK AO2 SLP182 T01170000
Loading
Personal Weather Stations






























Interactive Weather Map New forecast layout! Learn more

10-Day Weather Forecast

Advertisements
Track Severe Weather on mobile